createdAt,value
2022-10-05T00:01:00.642Z,6.20
2022-10-05T00:03:41.335Z,6.20
2022-10-05T00:06:09.990Z,6.20
2022-10-05T00:08:38.120Z,6.20
2022-10-05T00:11:08.134Z,6.30
2022-10-05T00:13:34.979Z,5.90
2022-10-05T00:16:04.624Z,5.90
2022-10-05T00:18:32.550Z,5.80
2022-10-05T00:20:59.378Z,5.80
2022-10-05T00:23:27.913Z,5.90
2022-10-05T00:25:54.902Z,5.80
2022-10-05T00:28:30.801Z,5.80
2022-10-05T00:30:58.346Z,5.80
2022-10-05T00:33:26.322Z,6.00
2022-10-05T00:35:56.122Z,5.80
2022-10-05T00:38:23.509Z,5.90
2022-10-05T00:40:50.597Z,5.90
2022-10-05T00:43:36.780Z,5.80
2022-10-05T00:46:09.224Z,5.80
2022-10-05T00:48:54.814Z,5.70
2022-10-05T00:51:21.735Z,5.80
2022-10-05T00:54:08.365Z,4.50
2022-10-05T00:56:35.267Z,5.60
2022-10-05T00:59:08.258Z,5.60
2022-10-05T01:01:37.635Z,5.10
2022-10-05T01:04:19.719Z,5.70
2022-10-05T01:06:57.781Z,5.60
2022-10-05T01:09:25.556Z,6.00
2022-10-05T01:11:58.000Z,5.10
2022-10-05T01:14:43.675Z,5.40
2022-10-05T01:17:12.993Z,5.60
2022-10-05T01:19:55.308Z,5.50
2022-10-05T01:22:22.093Z,5.50
2022-10-05T01:25:03.077Z,5.60
2022-10-05T01:27:48.166Z,5.40
2022-10-05T01:30:21.216Z,5.40
2022-10-05T01:32:56.481Z,5.60
2022-10-05T01:35:30.830Z,5.40
2022-10-05T01:37:57.759Z,5.20
2022-10-05T01:40:36.861Z,5.10
2022-10-05T01:43:22.737Z,5.20
2022-10-05T01:46:01.200Z,5.50
2022-10-05T01:48:37.526Z,5.40
2022-10-05T01:51:22.961Z,5.30
2022-10-05T01:53:56.735Z,5.50
2022-10-05T01:56:42.633Z,5.20
2022-10-05T01:59:23.041Z,5.20
2022-10-05T02:01:57.629Z,5.10
2022-10-05T02:04:56.957Z,5.10
2022-10-05T02:07:18.614Z,5.10
2022-10-05T02:09:47.510Z,5.20
2022-10-05T02:12:15.907Z,5.10
2022-10-05T02:14:43.376Z,5.10
2022-10-05T02:17:15.600Z,5.00
2022-10-05T02:19:43.173Z,5.00
2022-10-05T02:22:28.764Z,5.10
2022-10-05T02:24:59.621Z,5.20
2022-10-05T02:27:29.184Z,5.00
2022-10-05T02:29:57.674Z,5.00
2022-10-05T02:32:27.558Z,5.00
2022-10-05T02:34:54.546Z,4.70
2022-10-05T02:40:38.261Z,5.00
2022-10-05T02:43:14.745Z,4.80
2022-10-05T02:46:05.031Z,4.70
2022-10-05T02:48:32.167Z,4.70
2022-10-05T02:51:20.906Z,4.70
2022-10-05T02:53:58.062Z,4.70
2022-10-05T02:56:44.104Z,4.60
2022-10-05T02:59:15.853Z,4.70
2022-10-05T03:01:56.126Z,5.10
2022-10-05T03:04:32.183Z,4.70
2022-10-05T03:07:04.845Z,4.70
2022-10-05T03:09:32.248Z,4.70
2022-10-05T03:11:59.153Z,4.60
2022-10-05T03:14:33.870Z,4.70
2022-10-05T03:17:13.223Z,4.70
2022-10-05T03:19:50.243Z,4.80
2022-10-05T03:22:20.187Z,5.30
2022-10-05T03:24:47.252Z,4.80
2022-10-05T03:27:33.369Z,4.60
2022-10-05T03:30:12.195Z,4.50
2022-10-05T03:32:49.319Z,4.50
2022-10-05T03:35:19.217Z,4.50
2022-10-05T03:38:07.735Z,4.50
2022-10-05T03:40:53.253Z,4.40
2022-10-05T03:43:39.102Z,4.60
2022-10-05T03:46:08.611Z,4.50
2022-10-05T03:48:46.707Z,4.50
2022-10-05T03:51:34.711Z,4.50
2022-10-05T03:54:20.150Z,4.50
2022-10-05T03:56:50.220Z,4.40
2022-10-05T03:59:19.124Z,4.40
2022-10-05T04:01:48.279Z,4.50
2022-10-05T04:04:19.043Z,3.90
2022-10-05T04:06:47.588Z,4.90
2022-10-05T04:09:19.127Z,4.60
2022-10-05T04:11:57.171Z,4.50
2022-10-05T04:14:28.827Z,4.90
2022-10-05T04:16:59.241Z,4.50
2022-10-05T04:19:31.102Z,4.40
2022-10-05T04:22:01.233Z,5.20
2022-10-05T04:24:56.568Z,4.60
2022-10-05T04:27:44.935Z,4.40
2022-10-05T04:30:15.414Z,4.40
2022-10-05T04:32:42.895Z,4.30
2022-10-05T04:35:13.761Z,4.30
2022-10-05T04:37:46.976Z,4.30
2022-10-05T04:46:18.053Z,3.00
2022-10-05T04:49:04.831Z,4.40
2022-10-05T04:51:34.803Z,4.30
2022-10-05T04:54:36.232Z,4.30
2022-10-05T04:57:03.718Z,5.20
2022-10-05T04:59:54.035Z,4.50
2022-10-05T05:02:26.717Z,5.10
2022-10-05T05:05:12.620Z,4.40
2022-10-05T05:08:12.478Z,4.30
2022-10-05T05:10:45.454Z,4.30
2022-10-05T05:13:12.297Z,5.50
2022-10-05T05:15:59.759Z,4.40
2022-10-05T05:18:43.277Z,4.40
2022-10-05T05:21:34.344Z,4.80
2022-10-05T05:24:05.983Z,4.70
2022-10-05T05:26:48.358Z,4.40
2022-10-05T05:29:17.834Z,4.30
2022-10-05T05:32:05.158Z,4.30
2022-10-05T05:34:45.035Z,4.30
2022-10-05T05:37:21.040Z,4.60
2022-10-05T05:39:53.668Z,4.50
2022-10-05T05:42:32.446Z,4.60
2022-10-05T05:45:00.491Z,4.60
2022-10-05T05:47:31.575Z,4.60
2022-10-05T05:50:09.614Z,4.50
2022-10-05T05:52:48.278Z,4.60
2022-10-05T05:55:34.286Z,4.50
2022-10-05T05:58:04.186Z,4.60
2022-10-05T06:00:32.786Z,4.60
2022-10-05T06:03:37.785Z,4.60
2022-10-05T06:06:05.388Z,4.70
2022-10-05T06:08:35.351Z,4.60
2022-10-05T06:11:05.318Z,4.60
2022-10-05T06:13:36.131Z,4.60
2022-10-05T06:16:38.864Z,4.70
2022-10-05T06:19:09.114Z,4.80
2022-10-05T06:21:37.673Z,5.10
2022-10-05T06:24:07.641Z,5.20
2022-10-05T06:26:34.978Z,5.30
2022-10-05T06:29:02.666Z,5.50
2022-10-05T06:31:58.906Z,5.60
2022-10-05T06:34:26.042Z,5.80
2022-10-05T06:36:58.192Z,5.70
2022-10-05T06:39:32.179Z,5.70
2022-10-05T06:42:19.719Z,5.70
2022-10-05T06:44:53.708Z,5.80
2022-10-05T06:47:27.658Z,5.90
2022-10-05T06:50:13.807Z,6.00
2022-10-05T06:53:06.992Z,6.00
2022-10-05T06:55:33.903Z,6.20
2022-10-05T06:58:33.368Z,6.40
2022-10-05T07:01:00.336Z,6.40
2022-10-05T07:03:36.322Z,6.60
2022-10-05T07:08:48.037Z,6.90
2022-10-05T07:11:15.038Z,7.10
2022-10-05T07:13:51.829Z,7.20
2022-10-05T07:16:39.034Z,7.40
2022-10-05T07:19:24.690Z,7.60
2022-10-05T07:21:57.701Z,7.70
2022-10-05T07:24:33.652Z,7.90
2022-10-05T07:27:12.703Z,8.00
2022-10-05T07:29:59.454Z,8.20
2022-10-05T07:32:36.335Z,8.20
2022-10-05T07:35:31.474Z,8.20
2022-10-05T07:38:07.088Z,8.30
2022-10-05T07:40:38.676Z,9.60
2022-10-05T07:43:21.060Z,8.60
2022-10-05T07:46:00.281Z,8.80
2022-10-05T07:48:35.669Z,8.90
2022-10-05T07:51:21.359Z,9.10
2022-10-05T07:54:00.989Z,9.20
2022-10-05T07:56:56.065Z,9.30
2022-10-05T07:59:31.172Z,9.40
2022-10-05T08:02:35.264Z,9.40
2022-10-05T08:05:04.647Z,9.10
2022-10-05T08:11:09.503Z,9.40
2022-10-05T08:20:34.855Z,10.30
2022-10-05T08:26:33.655Z,10.10
2022-10-05T08:43:35.586Z,10.70
2022-10-05T08:50:13.334Z,10.90
2022-10-05T08:52:59.291Z,10.90
2022-10-05T08:56:15.297Z,11.00
2022-10-05T08:58:54.910Z,10.90
2022-10-05T09:01:26.251Z,11.00
2022-10-05T09:04:02.295Z,10.90
2022-10-05T09:06:29.190Z,11.10
2022-10-05T09:09:08.334Z,11.10
2022-10-05T09:11:39.371Z,11.20
2022-10-05T09:14:07.262Z,11.30
2022-10-05T09:16:37.306Z,11.40
2022-10-05T09:19:08.303Z,11.60
2022-10-05T09:25:04.923Z,11.70
2022-10-05T09:27:43.607Z,11.80
2022-10-05T09:30:10.536Z,11.80
2022-10-05T09:32:59.018Z,11.80
2022-10-05T09:35:34.589Z,12.20
2022-10-05T09:38:21.015Z,11.90
2022-10-05T09:41:10.539Z,11.90
2022-10-05T09:44:01.708Z,11.80
2022-10-05T09:46:47.763Z,11.70
2022-10-05T09:49:14.565Z,11.90
2022-10-05T09:51:41.428Z,11.90
2022-10-05T09:54:28.997Z,11.90
2022-10-05T09:56:55.767Z,12.00
2022-10-05T09:59:25.401Z,12.10
2022-10-05T10:02:05.095Z,12.30
2022-10-05T10:04:52.166Z,12.50
2022-10-05T10:07:25.310Z,12.70
2022-10-05T10:09:58.350Z,12.80
2022-10-05T10:12:45.083Z,13.00
2022-10-05T10:15:19.412Z,13.10
2022-10-05T10:17:55.810Z,13.20
2022-10-05T10:20:25.857Z,13.30
2022-10-05T10:23:04.945Z,13.40
2022-10-05T10:25:31.934Z,13.40
2022-10-05T10:28:14.069Z,13.40
2022-10-05T10:30:46.908Z,13.50
2022-10-05T10:33:22.902Z,13.60
2022-10-05T10:36:08.696Z,13.60
2022-10-05T10:38:47.546Z,13.60
2022-10-05T10:41:17.882Z,13.60
2022-10-05T10:44:03.723Z,13.60
2022-10-05T10:46:43.128Z,13.60
2022-10-05T10:49:25.517Z,13.60
2022-10-05T10:52:10.672Z,13.60
2022-10-05T10:54:49.895Z,13.50
2022-10-05T10:57:22.875Z,13.50
2022-10-05T11:00:04.733Z,13.60
2022-10-05T11:02:37.515Z,13.50
2022-10-05T11:05:11.816Z,13.60
2022-10-05T11:07:52.241Z,13.60
2022-10-05T11:10:20.257Z,13.70
2022-10-05T11:12:47.788Z,13.80
2022-10-05T11:15:30.042Z,13.90
2022-10-05T11:18:02.116Z,14.00
2022-10-05T11:20:47.504Z,14.10
2022-10-05T11:23:37.928Z,14.30
2022-10-05T11:26:18.830Z,14.30
2022-10-05T11:29:06.038Z,14.30
2022-10-05T11:31:50.609Z,14.30
2022-10-05T11:34:21.296Z,14.30
2022-10-05T11:36:51.389Z,14.40
2022-10-05T11:39:28.825Z,14.40
2022-10-05T11:42:01.536Z,14.40
2022-10-05T11:44:34.988Z,14.50
2022-10-05T11:47:11.057Z,14.60
2022-10-05T11:49:45.954Z,14.80
2022-10-05T11:52:19.007Z,14.90
2022-10-05T11:55:09.725Z,14.70
2022-10-05T11:57:51.593Z,14.80
2022-10-05T12:00:20.066Z,14.90
2022-10-05T12:03:05.469Z,15.00
2022-10-05T12:05:47.842Z,15.30
2022-10-05T12:08:14.697Z,15.50
2022-10-05T12:10:56.709Z,15.50
2022-10-05T12:13:35.959Z,15.50
2022-10-05T12:16:08.152Z,15.70
2022-10-05T12:18:39.399Z,15.70
2022-10-05T12:21:16.112Z,15.70
2022-10-05T12:23:44.567Z,15.70
2022-10-05T12:26:15.202Z,15.70
2022-10-05T12:28:46.922Z,15.80
2022-10-05T12:31:13.791Z,15.90
2022-10-05T12:33:59.995Z,15.90
2022-10-05T12:36:36.034Z,15.80
2022-10-05T12:39:19.163Z,15.80
2022-10-05T12:41:46.095Z,15.90
2022-10-05T12:44:13.175Z,16.00
2022-10-05T12:46:40.081Z,15.90
2022-10-05T12:49:12.882Z,15.90
2022-10-05T12:51:58.517Z,16.00
2022-10-05T12:54:25.354Z,16.10
2022-10-05T12:56:56.769Z,16.10
2022-10-05T12:59:26.626Z,15.90
2022-10-05T13:02:12.205Z,15.70
2022-10-05T13:04:50.701Z,15.50
2022-10-05T13:07:30.877Z,15.40
2022-10-05T13:10:09.580Z,15.30
2022-10-05T13:12:58.237Z,15.20
2022-10-05T13:15:28.201Z,15.20
2022-10-05T13:17:58.925Z,15.20
2022-10-05T13:20:28.851Z,15.30
2022-10-05T13:23:05.025Z,15.30
2022-10-05T13:25:33.017Z,15.10
2022-10-05T13:28:29.252Z,15.00
2022-10-05T13:31:03.814Z,15.00
2022-10-05T13:33:51.209Z,15.00
2022-10-05T13:36:19.303Z,14.90
2022-10-05T13:38:49.191Z,14.90
2022-10-05T13:41:34.538Z,14.90
2022-10-05T13:44:01.377Z,14.80
2022-10-05T13:46:33.370Z,14.80
2022-10-05T13:49:03.829Z,14.90
2022-10-05T13:51:41.904Z,14.90
2022-10-05T13:54:19.210Z,14.70
2022-10-05T13:56:47.771Z,15.10
2022-10-05T13:59:26.780Z,15.20
2022-10-05T14:02:05.521Z,15.10
2022-10-05T14:04:45.820Z,15.10
2022-10-05T14:07:31.647Z,15.30
2022-10-05T14:09:59.393Z,15.30
2022-10-05T14:12:26.446Z,15.40
2022-10-05T14:14:54.079Z,15.50
2022-10-05T14:17:32.895Z,15.50
2022-10-05T14:20:01.172Z,15.40
2022-10-05T14:22:28.074Z,15.50
2022-10-05T14:24:55.102Z,15.50
2022-10-05T14:27:28.754Z,15.40
2022-10-05T14:29:57.471Z,15.40
2022-10-05T14:32:25.075Z,15.20
2022-10-05T14:34:55.107Z,14.80
2022-10-05T14:37:23.167Z,15.10
2022-10-05T14:39:50.519Z,15.20
2022-10-05T14:42:17.480Z,15.00
2022-10-05T14:44:44.369Z,14.90
2022-10-05T14:47:23.090Z,14.90
2022-10-05T14:50:10.943Z,15.00
2022-10-05T14:52:38.512Z,15.00
2022-10-05T14:55:17.937Z,15.50
2022-10-05T14:57:44.750Z,15.20
2022-10-05T15:00:17.818Z,15.10
2022-10-05T15:02:48.215Z,15.10
2022-10-05T15:05:36.965Z,15.00
2022-10-05T15:08:08.911Z,15.00
2022-10-05T15:10:35.817Z,15.00
2022-10-05T15:13:11.864Z,14.90
2022-10-05T15:15:51.066Z,14.80
2022-10-05T15:18:21.062Z,14.70
2022-10-05T15:20:54.072Z,14.70
2022-10-05T15:23:26.942Z,14.60
2022-10-05T15:25:56.819Z,14.40
2022-10-05T15:28:56.505Z,14.30
2022-10-05T15:31:30.168Z,14.30
2022-10-05T15:34:00.203Z,14.10
2022-10-05T15:36:43.712Z,14.00
2022-10-05T15:39:16.669Z,13.90
2022-10-05T15:41:45.197Z,13.80
2022-10-05T15:44:15.301Z,13.80
2022-10-05T15:46:47.428Z,13.60
2022-10-05T15:49:17.627Z,13.50
2022-10-05T15:51:45.652Z,13.50
2022-10-05T15:54:43.483Z,13.30
2022-10-05T15:57:12.003Z,13.20
2022-10-05T15:59:42.685Z,13.30
2022-10-05T16:02:18.512Z,13.10
2022-10-05T16:05:04.752Z,12.90
2022-10-05T16:10:46.316Z,12.30
2022-10-05T16:13:25.351Z,12.00
2022-10-05T16:16:01.412Z,11.70
2022-10-05T16:21:58.063Z,11.30
2022-10-05T16:24:40.363Z,11.80
2022-10-05T16:27:10.615Z,11.30
2022-10-05T16:42:50.211Z,11.70
2022-10-05T16:48:43.799Z,10.80
2022-10-05T16:52:01.908Z,10.60
2022-10-05T16:55:08.320Z,11.70
2022-10-05T16:57:51.573Z,10.70
2022-10-05T17:00:44.490Z,10.50
2022-10-05T17:03:33.809Z,12.90
2022-10-05T17:15:54.452Z,11.20
2022-10-05T17:18:28.356Z,11.40
2022-10-05T17:21:46.899Z,10.80
2022-10-05T17:37:32.768Z,11.50
2022-10-05T17:40:01.175Z,10.90
2022-10-05T17:42:37.987Z,10.50
2022-10-05T17:45:26.633Z,10.50
2022-10-05T17:53:37.481Z,11.10
2022-10-05T17:56:06.921Z,10.30
2022-10-05T17:58:37.100Z,10.10
2022-10-05T18:03:51.985Z,10.20
2022-10-05T18:06:28.812Z,10.10
2022-10-05T18:09:11.705Z,10.00
2022-10-05T18:11:39.329Z,9.90
2022-10-05T18:14:43.932Z,9.90
2022-10-05T18:17:11.304Z,9.20
2022-10-05T18:19:39.745Z,10.00
2022-10-05T18:22:06.635Z,10.10
2022-10-05T18:24:37.324Z,10.30
2022-10-05T18:27:12.260Z,9.90
2022-10-05T18:30:06.063Z,10.00
2022-10-05T18:32:52.318Z,9.80
2022-10-05T18:35:25.442Z,9.60
2022-10-05T18:38:04.610Z,9.60
2022-10-05T18:40:48.984Z,9.50
2022-10-05T18:43:23.647Z,9.30
2022-10-05T18:46:06.265Z,9.30
2022-10-05T18:48:53.009Z,9.40
2022-10-05T18:51:31.443Z,9.40
2022-10-05T18:54:06.522Z,9.40
2022-10-05T18:56:56.323Z,9.30
2022-10-05T18:59:35.417Z,9.30
2022-10-05T19:02:23.497Z,9.30
2022-10-05T19:05:02.799Z,9.20
2022-10-05T19:07:39.185Z,9.10
2022-10-05T19:10:17.730Z,9.40
2022-10-05T19:13:05.291Z,9.20
2022-10-05T19:15:41.074Z,9.40
2022-10-05T19:18:14.172Z,9.20
2022-10-05T19:20:41.510Z,9.20
2022-10-05T19:23:28.503Z,9.10
2022-10-05T19:25:58.927Z,9.30
2022-10-05T19:28:34.748Z,9.10
2022-10-05T19:31:07.311Z,9.10
2022-10-05T19:33:53.217Z,9.00
2022-10-05T19:36:40.283Z,9.10
2022-10-05T19:42:38.538Z,9.10
2022-10-05T19:45:14.922Z,9.20
2022-10-05T19:47:53.324Z,9.20
2022-10-05T19:50:20.393Z,9.10
2022-10-05T19:59:00.779Z,8.80
2022-10-05T20:01:31.597Z,9.00
2022-10-05T20:04:12.872Z,9.70
2022-10-05T20:06:44.592Z,9.20
2022-10-05T20:09:34.596Z,9.00
2022-10-05T20:15:46.914Z,8.70
2022-10-05T20:18:56.196Z,8.60
2022-10-05T20:21:38.211Z,8.70
2022-10-05T20:24:09.246Z,7.30
2022-10-05T20:27:01.048Z,8.30
2022-10-05T20:29:33.015Z,8.20
2022-10-05T20:32:04.874Z,8.30
2022-10-05T20:34:38.998Z,8.30
2022-10-05T20:37:47.051Z,8.80
2022-10-05T20:40:20.728Z,9.20
2022-10-05T20:43:02.281Z,8.20
2022-10-05T20:45:36.699Z,7.40
2022-10-05T20:48:30.213Z,8.30
2022-10-05T20:53:49.510Z,8.30
2022-10-05T20:56:17.227Z,8.60
2022-10-05T20:58:50.370Z,8.20
2022-10-05T21:01:19.737Z,8.50
2022-10-05T21:03:47.062Z,8.20
2022-10-05T21:06:13.989Z,8.20
2022-10-05T21:08:40.821Z,6.40
2022-10-05T21:11:09.167Z,8.00
2022-10-05T21:13:42.635Z,7.90
2022-10-05T21:16:13.069Z,8.00
2022-10-05T21:18:40.138Z,8.00
2022-10-05T21:21:07.490Z,8.10
2022-10-05T21:26:12.094Z,8.00
2022-10-05T21:28:39.638Z,8.00
2022-10-05T21:31:09.716Z,7.90
2022-10-05T21:33:36.648Z,8.30
2022-10-05T21:36:03.692Z,8.00
2022-10-05T21:38:30.888Z,8.10
2022-10-05T21:40:57.899Z,8.10
2022-10-05T21:43:25.213Z,8.10
2022-10-05T21:45:52.588Z,8.10
2022-10-05T21:48:19.567Z,8.20
2022-10-05T21:50:46.495Z,8.10
2022-10-05T21:53:13.770Z,8.00
2022-10-05T21:55:41.377Z,8.00
2022-10-05T21:58:08.877Z,7.90
2022-10-05T22:00:36.272Z,7.90
2022-10-05T22:03:03.161Z,7.80
2022-10-05T22:05:32.224Z,7.90
2022-10-05T22:07:59.274Z,7.90
2022-10-05T22:10:26.241Z,7.70
2022-10-05T22:12:53.143Z,7.70
2022-10-05T22:15:20.700Z,7.70
2022-10-05T22:17:47.745Z,7.70
2022-10-05T22:20:15.707Z,7.70
2022-10-05T22:22:42.636Z,7.60
2022-10-05T22:25:10.686Z,7.60
2022-10-05T22:27:37.985Z,7.70
2022-10-05T22:30:05.945Z,7.60
2022-10-05T22:32:32.871Z,7.60
2022-10-05T22:34:59.961Z,7.60
2022-10-05T22:37:27.322Z,7.60
2022-10-05T22:39:55.428Z,7.60
2022-10-05T22:42:22.398Z,7.60
2022-10-05T22:44:49.289Z,7.80
2022-10-05T22:47:16.152Z,7.40
2022-10-05T22:49:44.216Z,7.40
2022-10-05T22:52:13.885Z,7.30
2022-10-05T22:54:40.739Z,7.20
2022-10-05T22:57:07.926Z,7.30
2022-10-05T22:59:35.017Z,7.20
2022-10-05T23:02:02.056Z,7.30
2022-10-05T23:04:29.194Z,7.50
2022-10-05T23:06:56.082Z,7.60
2022-10-05T23:09:22.987Z,7.80
2022-10-05T23:11:52.616Z,7.60
2022-10-05T23:14:19.726Z,7.80
2022-10-05T23:16:50.515Z,7.90
2022-10-05T23:19:17.838Z,8.20
2022-10-05T23:21:44.731Z,7.80
2022-10-05T23:24:12.037Z,7.70
2022-10-05T23:29:04.432Z,7.50
2022-10-05T23:31:31.802Z,7.70
2022-10-05T23:33:58.826Z,7.40
2022-10-05T23:36:29.127Z,7.40
2022-10-05T23:38:56.372Z,7.60
2022-10-05T23:41:23.893Z,7.70
2022-10-05T23:43:51.122Z,7.30
2022-10-05T23:46:18.570Z,7.20
2022-10-05T23:48:45.489Z,7.30
2022-10-05T23:53:41.113Z,7.20
2022-10-05T23:56:10.535Z,7.60
2022-10-05T23:58:37.661Z,8.20
